Time;durP1;ratioP1;P1;durP2;ratioP2;P2;SDS_P1;SDS_P2;PMS_P1;PMS_P2;Temp;Humidity;BMP_temperature;BMP_pressure;BME280_temperature;BME280_humidity;BME280_pressure;Samples;Min_cycle;Max_cycle;Signal;HPM_P1;HPM_P2
2022/06/10 00:00:28;;;;;;;1.05;0.63;;;;;;;14.86;36.39;92554.97;4755280;30;20056;-76
2022/06/10 00:02:54;;;;;;;0.88;0.60;;;;;;;14.87;35.95;92562.56;4755006;30;20083;-76
2022/06/10 00:05:24;;;;;;;2.80;0.77;;;;;;;14.90;36.40;92530.31;4748933;30;20643;-76
2022/06/10 00:07:51;;;;;;;1.70;0.60;;;;;;;14.85;36.48;92537.63;4737175;30;20050;-76
2022/06/10 00:10:21;;;;;;;1.10;0.70;;;;;;;14.87;35.82;92557.31;4722507;30;20106;-76
2022/06/10 00:12:47;;;;;;;4.75;0.80;;;;;;;14.80;35.97;92566.78;4752791;30;20070;-75
2022/06/10 00:15:14;;;;;;;1.63;0.75;;;;;;;14.82;35.98;92549.56;4755003;30;20040;-76
2022/06/10 00:17:40;;;;;;;1.20;0.68;;;;;;;14.85;35.94;92564.75;4752770;30;20036;-76
2022/06/10 00:20:07;;;;;;;2.00;0.60;;;;;;;14.87;35.60;92559.16;4760615;30;20110;-76
2022/06/10 00:22:33;;;;;;;3.25;0.70;;;;;;;14.82;36.27;92561.97;4754592;30;20052;-76
2022/06/10 00:24:59;;;;;;;1.77;0.73;;;;;;;14.71;36.36;92557.00;4746491;30;20380;-76
2022/06/10 00:27:25;;;;;;;1.38;0.70;;;;;;;14.68;36.28;92543.66;4769555;30;20047;-76
2022/06/10 00:29:51;;;;;;;1.60;0.80;;;;;;;14.67;35.85;92536.84;4769357;30;20060;-76
2022/06/10 00:32:17;;;;;;;1.08;0.60;;;;;;;14.75;35.53;92550.03;4753379;30;20409;-76
2022/06/10 00:34:43;;;;;;;1.48;0.80;;;;;;;14.74;36.09;92543.19;4766024;30;20108;-76
2022/06/10 00:37:09;;;;;;;1.42;0.70;;;;;;;14.68;36.38;92543.66;4753432;30;20047;-75
2022/06/10 00:39:36;;;;;;;2.15;0.80;;;;;;;14.66;36.34;92536.06;4770190;30;20054;-76
2022/06/10 00:42:04;;;;;;;4.43;0.70;;;;;;;14.68;36.05;92544.44;4770244;30;20459;-76
2022/06/10 00:44:48;;;;;;;4.60;0.68;;;;;;;14.66;35.97;92541.34;4769842;30;20040;-76
2022/06/10 00:47:37;;;;;;;0.85;0.52;;;;;;;14.59;36.34;92535.75;4769816;30;20502;-76
2022/06/10 00:50:17;;;;;;;1.48;0.70;;;;;;;14.78;35.78;92540.72;4769978;30;20437;-76
2022/06/10 00:52:49;;;;;;;1.35;0.65;;;;;;;14.78;35.78;92541.50;4750409;30;20071;-76
2022/06/10 00:55:14;;;;;;;2.63;0.90;;;;;;;14.72;35.91;92534.81;4752170;30;20042;-76
2022/06/10 00:57:44;;;;;;;4.13;0.80;;;;;;;14.83;34.85;92521.34;4742058;30;20410;-76
2022/06/10 01:00:13;;;;;;;3.90;1.20;;;;;;;14.79;35.73;92518.53;4739396;30;20059;-76
2022/06/10 01:02:39;;;;;;;1.85;0.80;;;;;;;14.64;35.80;92535.59;4769770;30;20066;-76
2022/06/10 01:05:18;;;;;;;0.85;0.63;;;;;;;14.62;36.13;92542.28;4769682;30;20131;-76
2022/06/10 01:07:54;;;;;;;2.03;0.80;;;;;;;14.59;36.01;92525.22;4752677;30;20131;-76
2022/06/10 01:10:20;;;;;;;2.63;0.95;;;;;;;14.59;36.29;92525.22;4745404;30;20118;-76
2022/06/10 01:13:03;;;;;;;3.72;0.95;;;;;;;14.61;36.05;92522.25;4765790;30;20139;-75
2022/06/10 01:15:29;;;;;;;5.32;0.90;;;;;;;14.74;35.85;92514.19;4768595;30;20028;-75
2022/06/10 01:18:09;;;;;;;4.82;1.13;;;;;;;14.60;36.40;92554.97;4766924;30;20047;-76
2022/06/10 01:20:38;;;;;;;3.17;1.02;;;;;;;14.62;36.30;92529.88;4768336;30;20046;-76
2022/06/10 01:23:43;;;;;;;1.88;0.85;;;;;;;14.47;37.22;92532.91;4768603;30;20126;-76
2022/06/10 01:26:31;;;;;;;1.77;0.90;;;;;;;14.38;37.04;92543.44;4712606;30;20063;-76
2022/06/10 01:29:40;;;;;;;4.90;1.02;;;;;;;14.40;37.00;92536.00;4727351;30;20147;-76
2022/06/10 01:32:17;;;;;;;0.88;0.52;;;;;;;14.57;36.31;92532.66;4761860;30;20078;-76
2022/06/10 01:35:01;;;;;;;3.97;0.88;;;;;;;14.44;36.80;92547.47;4768373;30;20036;-76
2022/06/10 01:37:38;;;;;;;2.25;0.90;;;;;;;14.46;36.82;92547.19;4753302;30;20062;-76
2022/06/10 01:40:24;;;;;;;2.75;0.90;;;;;;;14.38;36.83;92546.84;4743443;30;20055;-76
2022/06/10 01:43:01;;;;;;;4.03;0.95;;;;;;;14.48;36.36;92535.25;4767758;30;20047;-76
2022/06/10 01:45:49;;;;;;;2.60;0.75;;;;;;;14.60;36.29;92537.31;4768826;30;20071;-76
2022/06/10 01:48:22;;;;;;;1.23;0.73;;;;;;;14.53;36.26;92539.59;4750069;30;20056;-76
2022/06/10 01:50:54;;;;;;;5.72;1.00;;;;;;;14.50;36.43;92537.56;4763696;30;20042;-76
2022/06/10 01:53:23;;;;;;;;;;;;;;;14.52;36.12;92535.41;4752441;30;20052;-76
2022/06/10 01:56:09;;;;;;;4.22;1.00;;;;;;;14.50;35.84;92540.19;4766143;30;20004;-75
2022/06/10 01:58:56;;;;;;;3.70;1.00;;;;;;;14.59;35.85;92546.31;4757626;30;20056;-76
2022/06/10 02:01:32;;;;;;;5.53;0.88;;;;;;;14.58;35.98;92542.09;4751623;30;20039;-76
2022/06/10 02:04:30;;;;;;;5.22;0.95;;;;;;;14.58;36.12;92552.63;4767742;30;20067;-76
2022/06/10 02:07:04;;;;;;;5.15;0.95;;;;;;;14.50;36.29;92558.63;4743540;30;20056;-76
2022/06/10 02:09:36;;;;;;;1.45;0.75;;;;;;;14.54;36.50;92559.56;4749059;30;20043;-76
2022/06/10 02:12:13;;;;;;;3.42;0.85;;;;;;;14.51;36.30;92549.66;4750435;30;20051;-76
2022/06/10 02:14:46;;;;;;;1.23;0.70;;;;;;;14.49;36.70;92547.31;4749672;30;20097;-76
2022/06/10 02:17:14;;;;;;;3.45;0.80;;;;;;;14.58;35.87;92555.28;4768370;30;20046;-76
2022/06/10 02:19:45;;;;;;;7.60;1.33;;;;;;;14.57;35.87;92543.19;4749786;30;20420;-76
2022/06/10 02:22:18;;;;;;;1.75;0.80;;;;;;;14.62;36.17;92556.22;4740658;30;20502;-76
2022/06/10 02:24:49;;;;;;;2.63;0.73;;;;;;;14.57;36.19;92566.91;4752060;30;20118;-76
2022/06/10 02:27:18;;;;;;;3.47;0.90;;;;;;;14.57;36.45;92551.09;4734895;30;20533;-76
2022/06/10 02:29:58;;;;;;;3.40;0.93;;;;;;;14.48;36.90;92558.97;4749761;30;20040;-76
2022/06/10 02:32:24;;;;;;;4.75;1.00;;;;;;;14.38;36.96;92535.53;4750312;30;20047;-76
2022/06/10 02:34:50;;;;;;;2.72;1.00;;;;;;;14.38;36.35;92570.53;4747361;30;20492;-76
2022/06/10 02:37:24;;;;;;;2.13;0.80;;;;;;;14.45;36.43;92561.41;4768292;30;20048;-76
2022/06/10 02:39:53;;;;;;;2.78;0.82;;;;;;;14.44;35.98;92555.38;4767682;30;20056;-76
2022/06/10 02:42:27;;;;;;;1.85;0.95;;;;;;;14.56;36.17;92567.97;4767784;30;20059;-76
2022/06/10 02:45:32;;;;;;;1.25;0.80;;;;;;;14.57;35.79;92566.91;4768340;30;20042;-76
2022/06/10 02:48:10;;;;;;;1.83;0.77;;;;;;;14.66;35.50;92572.97;4741709;30;20047;-76
2022/06/10 02:50:38;;;;;;;1.77;0.80;;;;;;;14.59;36.70;92580.53;4752296;30;20043;-76
2022/06/10 02:53:05;;;;;;;4.00;0.80;;;;;;;14.65;36.53;92581.94;4761342;30;20422;-76
2022/06/10 02:55:31;;;;;;;4.15;1.00;;;;;;;14.56;36.26;92584.53;4768319;30;20407;-76
2022/06/10 03:03:57;;;;;;;2.50;0.85;;;;;;;14.48;36.33;92587.94;4757240;30;20564;-76
2022/06/10 03:06:31;;;;;;;1.17;0.60;;;;;;;14.49;36.33;92594.75;4750292;30;20044;-76
2022/06/10 03:09:08;;;;;;;2.15;1.17;;;;;;;14.47;36.38;92591.63;4735165;30;20086;-76
2022/06/10 03:11:59;;;;;;;1.38;0.63;;;;;;;14.47;36.79;92590.88;4720140;30;20056;-76
2022/06/10 03:14:55;;;;;;;0.90;0.52;;;;;;;14.42;36.41;92597.06;4764228;30;20260;-76
2022/06/10 03:17:44;;;;;;;1.23;0.65;;;;;;;14.35;36.90;92615.94;4766795;30;20039;-76
2022/06/10 03:20:12;;;;;;;1.05;0.70;;;;;;;14.33;36.82;92604.94;4729841;30;20063;-76
2022/06/10 03:22:52;;;;;;;5.32;1.00;;;;;;;14.27;37.20;92598.25;4750435;30;20446;-76
2022/06/10 03:25:26;;;;;;;4.25;0.90;;;;;;;14.27;37.19;92614.03;4761514;30;20076;-76
2022/06/10 03:27:59;;;;;;;2.35;0.60;;;;;;;14.53;36.47;92603.59;4751286;30;20044;-76
2022/06/10 03:30:31;;;;;;;2.35;0.70;;;;;;;14.51;36.79;92620.78;4750375;30;20040;-76
2022/06/10 03:33:15;;;;;;;2.70;0.80;;;;;;;14.45;36.55;92620.13;4750094;30;20069;-76
2022/06/10 03:35:49;;;;;;;1.52;1.20;;;;;;;14.46;37.04;92613.78;4750084;30;20105;-76
2022/06/10 03:38:15;;;;;;;3.45;0.75;;;;;;;14.51;36.38;92600.47;4751850;30;20071;-76
2022/06/10 03:40:42;;;;;;;3.97;0.93;;;;;;;14.47;36.90;92614.56;4752244;30;20398;-76
2022/06/10 03:43:13;;;;;;;2.78;0.80;;;;;;;14.36;36.95;92616.69;4751684;30;20503;-76
2022/06/10 03:45:45;;;;;;;2.43;0.93;;;;;;;14.34;37.33;92597.78;4767433;30;20094;-77
2022/06/10 03:48:17;;;;;;;0.68;0.50;;;;;;;14.43;37.18;92606.50;4752102;30;20050;-76
2022/06/10 03:50:43;;;;;;;1.95;0.90;;;;;;;14.35;37.67;92617.78;4768262;30;20046;-76
2022/06/10 03:53:15;;;;;;;1.50;0.75;;;;;;;14.33;37.68;92622.59;4751697;30;20032;-76
2022/06/10 03:55:41;;;;;;;6.20;0.88;;;;;;;14.25;37.64;92623.31;4767166;30;20056;-76
2022/06/10 03:58:07;;;;;;;3.22;0.70;;;;;;;14.34;37.27;92613.59;4768018;30;20044;-76
2022/06/10 04:00:33;;;;;;;2.97;0.90;;;;;;;14.46;36.80;92626.19;4751149;30;20050;-76
2022/06/10 04:02:58;;;;;;;0.77;0.60;;;;;;;14.41;37.18;92621.06;4751589;30;20043;-76
2022/06/10 04:05:24;;;;;;;1.45;0.65;;;;;;;14.43;37.23;92630.19;4750678;30;20044;-76
2022/06/10 04:07:50;;;;;;;1.23;0.75;;;;;;;14.40;37.71;92620.28;4771204;30;20118;-76
2022/06/10 04:10:19;;;;;;;2.38;0.70;;;;;;;14.31;38.22;92619.47;4739117;30;20032;-76
2022/06/10 04:12:45;;;;;;;2.88;0.88;;;;;;;14.34;38.03;92621.50;4766671;30;20122;-75
2022/06/10 04:15:15;;;;;;;1.70;0.70;;;;;;;14.39;37.83;92626.63;4757031;30;20036;-76
2022/06/10 04:17:47;;;;;;;3.60;0.70;;;;;;;14.34;38.08;92624.94;4759279;30;20040;-76
2022/06/10 04:20:19;;;;;;;2.58;0.70;;;;;;;14.44;37.89;92623.09;4766573;30;20526;-76
2022/06/10 04:22:46;;;;;;;1.90;0.90;;;;;;;14.48;37.36;92630.06;4769762;30;20134;-76
2022/06/10 04:25:12;;;;;;;1.27;0.65;;;;;;;14.54;37.43;92633.31;4768176;30;20061;-76
2022/06/10 04:27:37;;;;;;;2.00;0.70;;;;;;;14.58;37.66;92644.84;4768703;30;20473;-76
2022/06/10 04:30:06;;;;;;;1.63;0.85;;;;;;;14.72;37.60;92634.94;4768901;30;20127;-75
2022/06/10 04:32:32;;;;;;;5.20;1.00;;;;;;;14.72;38.04;92632.31;4766561;30;20501;-75
2022/06/10 04:34:57;;;;;;;1.48;0.70;;;;;;;14.66;38.05;92644.09;4741651;30;20036;-75
2022/06/10 04:37:24;;;;;;;3.35;0.73;;;;;;;14.66;38.35;92640.66;4769365;30;20042;-75
2022/06/10 04:39:50;;;;;;;1.27;0.73;;;;;;;14.72;38.20;92645.47;4748836;30;20133;-76
2022/06/10 04:42:16;;;;;;;4.00;0.70;;;;;;;14.74;38.37;92650.44;4764675;30;20511;-76
2022/06/10 04:44:42;;;;;;;4.55;0.80;;;;;;;14.70;38.46;92650.31;4754110;30;20151;-76
2022/06/10 04:47:08;;;;;;;3.78;0.80;;;;;;;14.67;38.78;92647.50;4766692;30;20047;-76
2022/06/10 04:49:36;;;;;;;3.95;0.52;;;;;;;14.72;38.66;92645.47;4768754;30;20054;-76
2022/06/10 04:52:03;;;;;;;1.42;0.68;;;;;;;14.78;38.75;92638.97;4744775;30;20116;-76
2022/06/10 04:54:29;;;;;;;0.65;0.60;;;;;;;14.84;38.78;92637.00;4763167;30;20060;-75
2022/06/10 04:56:55;;;;;;;6.68;1.00;;;;;;;14.87;38.58;92635.59;4738527;30;20046;-76
2022/06/10 04:59:20;;;;;;;1.40;0.60;;;;;;;14.99;38.11;92646.28;4757713;30;20049;-76
2022/06/10 05:01:46;;;;;;;2.55;0.55;;;;;;;15.08;38.44;92641.03;4758799;30;20093;-76
2022/06/10 05:04:12;;;;;;;2.03;0.65;;;;;;;15.12;38.24;92645.38;4767220;30;20564;-77
2022/06/10 05:06:37;;;;;;;3.15;0.80;;;;;;;15.12;38.33;92650.66;4759799;30;20056;-76
2022/06/10 05:09:04;;;;;;;4.70;0.80;;;;;;;15.11;38.29;92649.09;4766487;30;20245;-76
2022/06/10 05:11:29;;;;;;;1.17;0.63;;;;;;;15.14;38.37;92647.72;4758475;30;20036;-78
2022/06/10 05:13:56;;;;;;;3.03;0.60;;;;;;;15.12;38.74;92658.56;4734082;30;20044;-77
2022/06/10 05:16:23;;;;;;;1.30;0.70;;;;;;;15.23;38.51;92666.16;4755478;30;20488;-76
2022/06/10 05:18:48;;;;;;;2.65;0.95;;;;;;;15.28;38.43;92656.22;4751971;30;20411;-76
2022/06/10 05:21:14;;;;;;;3.28;1.02;;;;;;;15.35;38.15;92661.03;4758575;30;20044;-76
2022/06/10 05:23:44;;;;;;;0.65;0.65;;;;;;;15.39;38.58;92670.66;4759870;30;20415;-76
2022/06/10 05:26:11;;;;;;;3.65;0.73;;;;;;;15.51;37.79;92656.84;4752214;30;20036;-77
2022/06/10 05:28:37;;;;;;;3.33;0.77;;;;;;;15.57;38.48;92662.75;4763804;30;20044;-77
2022/06/10 05:31:03;;;;;;;1.95;0.63;;;;;;;15.61;38.20;92645.19;4766850;30;20526;-77
2022/06/10 05:34:44;;;;;;;2.28;0.60;;;;;;;15.62;38.15;92660.69;4768096;30;20039;-76
2022/06/10 05:36:15;;;;;;;8.32;0.77;;;;;;;15.68;38.22;92673.75;4753979;30;20048;-77
2022/06/10 05:38:41;;;;;;;4.13;0.52;;;;;;;15.85;38.12;92665.84;4769425;30;20060;-77
2022/06/10 05:43:51;;;;;;;1.08;0.50;;;;;;;16.21;36.65;92672.56;4769408;30;20070;-77
2022/06/10 05:46:17;;;;;;;1.52;0.70;;;;;;;16.99;35.47;92664.28;4769456;30;20036;-77
2022/06/10 05:48:44;;;;;;;4.90;0.70;;;;;;;17.77;34.12;92651.56;4753857;30;20487;-77
2022/06/10 05:51:11;;;;;;;0.85;0.52;;;;;;;18.56;32.39;92657.56;4769417;30;20043;-77
2022/06/10 05:53:37;;;;;;;4.35;0.80;;;;;;;19.05;31.77;92660.22;4769425;30;20035;-77
2022/06/10 05:56:02;;;;;;;4.03;0.70;;;;;;;19.80;30.49;92661.56;4753535;30;20261;-77
2022/06/10 05:58:28;;;;;;;3.50;0.77;;;;;;;20.04;30.56;92675.84;4769176;30;20047;-78
2022/06/10 06:00:53;;;;;;;6.13;0.70;;;;;;;20.57;29.59;92671.88;4775327;30;20436;-78
2022/06/10 06:03:19;;;;;;;0.77;0.43;;;;;;;20.95;29.21;92659.84;4760589;30;20052;-77
2022/06/10 06:05:45;;;;;;;2.03;0.73;;;;;;;21.20;28.46;92667.59;4759392;30;20098;-77
2022/06/10 06:08:10;;;;;;;1.30;0.60;;;;;;;21.55;28.09;92674.84;4729672;30;20064;-77
2022/06/10 06:10:36;;;;;;;2.72;0.70;;;;;;;21.52;28.33;92680.84;4760816;30;20043;-77
2022/06/10 06:13:02;;;;;;;5.50;0.85;;;;;;;21.86;27.60;92673.91;4776809;30;20075;-77
2022/06/10 06:15:28;;;;;;;2.45;0.63;;;;;;;21.95;28.13;92689.69;4754288;30;20098;-78
2022/06/10 06:17:53;;;;;;;1.67;0.60;;;;;;;21.54;28.44;92689.25;4753587;30;20047;-78
2022/06/10 06:20:22;;;;;;;2.35;0.70;;;;;;;21.88;26.19;92686.88;4753070;30;20058;-78
2022/06/10 06:22:47;;;;;;;2.00;0.80;;;;;;;22.06;26.94;92692.56;4769222;30;20046;-77
2022/06/10 06:25:15;;;;;;;0.77;0.55;;;;;;;22.23;27.32;92689.47;4769026;30;20441;-78
2022/06/10 06:27:43;;;;;;;2.38;0.60;;;;;;;22.27;27.26;92677.00;4768921;30;20048;-78
2022/06/10 06:30:32;;;;;;;5.20;0.93;;;;;;;21.76;27.51;92672.59;4769797;30;20448;-78
2022/06/10 06:33:05;;;;;;;2.28;0.60;;;;;;;21.69;28.48;92677.78;4769563;30;20043;-78
2022/06/10 06:35:33;;;;;;;0.80;0.43;;;;;;;21.07;29.12;92682.13;4769077;30;20036;-77
2022/06/10 06:37:59;;;;;;;3.72;0.75;;;;;;;20.83;29.11;92683.09;4768973;30;20040;-77
2022/06/10 06:40:25;;;;;;;1.50;0.57;;;;;;;20.78;28.81;92682.28;4750043;30;20064;-77
2022/06/10 06:42:51;;;;;;;2.78;0.45;;;;;;;20.75;30.52;92688.28;4750976;30;20047;-77
2022/06/10 06:45:19;;;;;;;2.60;0.77;;;;;;;20.82;30.43;92686.91;4750714;30;20484;-77
2022/06/10 06:47:45;;;;;;;5.55;0.80;;;;;;;20.79;30.07;92699.00;4750824;30;20054;-77
2022/06/10 06:50:15;;;;;;;2.35;0.70;;;;;;;20.77;29.28;92685.28;4749694;30;20412;-77
2022/06/10 06:52:42;;;;;;;3.65;0.60;;;;;;;20.67;30.42;92699.06;4750683;30;20129;-77
2022/06/10 06:55:08;;;;;;;1.42;0.30;;;;;;;20.65;30.09;92701.31;4750633;30;20503;-77
2022/06/10 06:57:34;;;;;;;3.65;0.60;;;;;;;20.77;29.41;92685.28;4751263;30;20052;-77
2022/06/10 07:00:07;;;;;;;4.47;0.68;;;;;;;20.81;29.95;92683.47;4751011;30;20055;-77
2022/06/10 07:02:34;;;;;;;1.90;0.65;;;;;;;20.47;28.86;92684.91;4749777;30;20120;-77
2022/06/10 07:05:00;;;;;;;4.68;0.80;;;;;;;20.46;30.10;92692.09;4750028;30;20040;-77
2022/06/10 07:07:26;;;;;;;3.40;0.50;;;;;;;20.50;29.54;92703.59;4735070;30;20040;-77
2022/06/10 07:09:51;;;;;;;2.45;0.52;;;;;;;20.39;29.48;92703.31;4751037;30;20052;-77
2022/06/10 07:12:17;;;;;;;0.50;0.40;;;;;;;20.56;28.38;92686.31;4734793;30;20043;-77
2022/06/10 07:14:43;;;;;;;1.40;0.50;;;;;;;20.59;28.99;92709.53;4749733;30;20539;-77
2022/06/10 07:17:09;;;;;;;3.42;0.55;;;;;;;20.29;30.18;92705.75;4750785;30;20487;-77
2022/06/10 07:19:34;;;;;;;1.75;0.50;;;;;;;20.62;29.63;92702.00;4750951;30;20119;-77
2022/06/10 07:22:00;;;;;;;0.52;0.40;;;;;;;20.69;29.35;92686.22;4749707;30;20129;-77
2022/06/10 07:24:25;;;;;;;2.10;0.77;;;;;;;20.65;30.27;92699.44;4750897;30;20052;-77
2022/06/10 07:26:51;;;;;;;1.35;0.60;;;;;;;20.87;30.69;92702.59;4750525;30;20121;-77
2022/06/10 07:29:18;;;;;;;1.95;0.60;;;;;;;21.03;29.69;92699.91;4751022;30;20123;-78
2022/06/10 07:31:44;;;;;;;4.65;0.70;;;;;;;21.12;30.21;92701.28;4749723;30;20134;-77
2022/06/10 07:34:10;;;;;;;6.32;0.88;;;;;;;21.32;29.15;92704.78;4749394;30;20500;-77
2022/06/10 07:36:36;;;;;;;1.50;0.68;;;;;;;21.03;29.62;92706.03;4750637;30;20093;-77
2022/06/10 07:39:02;;;;;;;5.53;0.80;;;;;;;21.15;29.21;92718.44;4749028;30;20059;-77
2022/06/10 07:44:12;;;;;;;2.28;0.60;;;;;;;21.47;29.28;92710.41;4753903;30;20063;-77
2022/06/10 07:46:38;;;;;;;2.55;0.70;;;;;;;21.51;30.19;92706.72;4753852;30;20500;-77
2022/06/10 07:49:04;;;;;;;1.65;0.52;;;;;;;21.69;28.03;92704.41;4753890;30;20052;-77
2022/06/10 07:51:29;;;;;;;2.55;0.60;;;;;;;21.90;28.66;92701.41;4754090;30;20047;-77
2022/06/10 07:53:55;;;;;;;2.90;0.68;;;;;;;21.92;29.10;92695.72;4753725;30;20114;-77
2022/06/10 07:56:22;;;;;;;2.97;0.50;;;;;;;21.92;27.89;92695.72;4753789;30;20113;-77
2022/06/10 07:58:49;;;;;;;3.50;0.70;;;;;;;21.94;28.98;92702.25;4752767;30;20083;-77
2022/06/10 08:01:16;;;;;;;1.27;0.60;;;;;;;22.03;28.17;92705.47;4752888;30;20040;-77
2022/06/10 08:03:41;;;;;;;4.72;0.70;;;;;;;22.13;27.91;92714.00;4752551;30;20059;-77
2022/06/10 08:06:07;;;;;;;4.25;0.90;;;;;;;22.19;28.05;92702.69;4757937;30;20048;-78
2022/06/10 08:08:34;;;;;;;2.63;0.68;;;;;;;22.29;28.27;92711.28;4744163;30;20068;-78
2022/06/10 08:10:59;;;;;;;5.40;0.60;;;;;;;22.41;26.87;92708.47;4759435;30;20056;-77
2022/06/10 08:13:26;;;;;;;8.50;0.80;;;;;;;22.46;27.68;92716.16;4774864;30;20059;-78
2022/06/10 11:43:49;;;;;;;1.55;0.70;;;;;;;24.27;24.76;92756.59;1414336;27;20055;-80
2022/06/10 11:46:44;;;;;;;1.38;0.65;;;;;;;24.60;25.10;92760.41;4792176;29;20058;-80
2022/06/10 11:49:31;;;;;;;1.95;0.73;;;;;;;24.43;25.38;92752.91;4786480;29;20536;-77
2022/06/10 11:52:04;;;;;;;1.65;0.70;;;;;;;24.56;26.48;92751.56;4788702;29;20540;-77
2022/06/10 11:54:55;;;;;;;2.72;0.80;;;;;;;24.55;25.44;92752.72;4788383;30;20071;-78
2022/06/10 12:00:42;;;;;;;1.90;0.82;;;;;;;24.42;26.50;92751.41;4789867;30;20056;-77
2022/06/10 12:03:34;;;;;;;3.25;0.80;;;;;;;24.34;26.68;92747.09;4788488;30;20039;-77
2022/06/10 12:06:21;;;;;;;1.52;0.90;;;;;;;24.35;26.32;92745.97;4788513;29;20115;-78
2022/06/10 12:08:53;;;;;;;1.83;0.82;;;;;;;24.46;27.01;92749.53;4789583;29;20039;-77
2022/06/10 12:11:39;;;;;;;;;;;;;;;24.42;26.33;92749.47;4791112;29;20047;-78
2022/06/10 12:14:22;;;;;;;2.08;1.10;;;;;;;24.22;26.88;92743.53;4788221;29;19924;-77
2022/06/10 12:16:55;;;;;;;3.20;0.80;;;;;;;24.46;27.35;92749.53;4788146;30;20035;-77
2022/06/10 12:19:34;;;;;;;1.25;0.77;;;;;;;24.60;27.96;92739.00;4773201;30;20410;-77
2022/06/10 12:22:00;;;;;;;2.17;0.98;;;;;;;24.57;25.58;92737.06;4788267;29;20042;-78
2022/06/10 12:24:26;;;;;;;3.25;0.70;;;;;;;24.58;27.05;92737.81;4788191;30;20027;-77
2022/06/10 12:26:51;;;;;;;1.10;0.50;;;;;;;24.64;28.84;92739.78;4787213;29;20055;-78
2022/06/10 12:29:52;;;;;;;1.80;0.80;;;;;;;24.20;25.91;92731.66;4788001;30;20047;-77
2022/06/10 12:32:26;;;;;;;1.65;0.90;;;;;;;24.23;26.68;92739.75;4773096;30;20043;-77
2022/06/10 12:35:07;;;;;;;1.08;0.90;;;;;;;24.42;26.32;92748.72;4789123;29;20383;-78
2022/06/10 12:37:41;;;;;;;4.45;0.80;;;;;;;24.60;27.76;92733.63;4787735;29;20043;-75
2022/06/10 12:40:32;;;;;;;1.35;0.73;;;;;;;24.75;27.61;92728.44;4772060;30;20039;-78
2022/06/10 12:43:10;;;;;;;1.27;0.70;;;;;;;24.74;28.14;92733.00;4787584;30;20043;-77
2022/06/10 12:45:46;;;;;;;2.20;0.95;;;;;;;24.67;26.42;92723.00;4788786;29;20041;-77
2022/06/10 12:48:20;;;;;;;2.35;0.90;;;;;;;24.91;26.03;92723.59;4788896;29;20122;-77
2022/06/10 12:51:01;;;;;;;1.70;0.88;;;;;;;24.95;27.09;92724.41;4788818;29;20379;-77
2022/06/10 12:53:51;;;;;;;2.47;0.80;;;;;;;24.80;26.18;92730.75;4788886;29;20129;-77
2022/06/10 12:56:32;;;;;;;3.85;1.10;;;;;;;24.79;25.98;92724.66;4788897;29;20031;-77
2022/06/10 12:59:11;;;;;;;1.73;0.75;;;;;;;24.82;27.43;92723.91;4787587;30;20398;-78
2022/06/10 13:01:37;;;;;;;2.10;0.85;;;;;;;24.71;25.40;92728.38;4789107;29;20112;-77
2022/06/10 13:04:25;;;;;;;2.20;0.93;;;;;;;24.45;25.20;92719.34;4788251;29;20062;-78
2022/06/10 13:07:00;;;;;;;1.42;0.90;;;;;;;24.80;28.19;92725.41;4787281;30;20507;-78
2022/06/10 13:09:36;;;;;;;2.25;0.93;;;;;;;25.01;26.89;92725.56;4787351;30;20038;-77
2022/06/10 13:12:08;;;;;;;1.48;0.70;;;;;;;25.22;27.01;92719.66;4787699;30;20171;-77
2022/06/10 13:14:38;;;;;;;1.50;0.82;;;;;;;25.29;29.81;92718.94;4787085;30;20192;-77
2022/06/10 13:17:13;;;;;;;2.67;0.68;;;;;;;25.27;28.14;92721.22;4772147;29;20394;-77
2022/06/10 13:20:02;;;;;;;2.28;0.80;;;;;;;25.31;27.46;92722.78;4787982;29;20039;-77
2022/06/10 13:22:33;;;;;;;1.77;0.90;;;;;;;25.09;28.09;92729.84;4787072;29;20043;-77
2022/06/10 13:24:58;;;;;;;1.77;1.00;;;;;;;25.35;29.19;92722.78;4788134;29;20074;-77
2022/06/10 13:27:33;;;;;;;1.80;0.82;;;;;;;25.02;27.39;92732.47;4785778;29;20476;-79
2022/06/10 13:30:25;;;;;;;1.90;1.08;;;;;;;25.16;31.06;92717.66;4794801;29;20129;-79
2022/06/10 13:32:59;;;;;;;1.17;0.70;;;;;;;24.91;27.73;92729.72;4797661;30;20131;-80
2022/06/10 13:35:32;;;;;;;2.58;0.90;;;;;;;24.79;27.52;92727.31;4794775;29;20031;-83
2022/06/10 13:38:02;;;;;;;4.13;1.00;;;;;;;24.92;28.28;92727.81;4793674;29;20095;-82
2022/06/10 13:40:30;;;;;;;1.33;1.00;;;;;;;24.75;26.66;92731.13;4796764;29;20059;-83
2022/06/10 13:43:00;;;;;;;1.38;0.80;;;;;;;24.96;26.21;92728.59;4795296;29;20267;-85
2022/06/10 13:45:40;;;;;;;2.15;0.93;;;;;;;25.12;28.17;92715.72;4793079;29;20467;-82
2022/06/10 13:48:15;;;;;;;3.08;1.20;;;;;;;25.31;28.88;92717.41;4793771;30;20039;-83
2022/06/10 13:53:42;;;;;;;1.25;0.88;;;;;;;25.20;27.00;92721.94;4794015;29;20051;-83
2022/06/10 13:56:14;;;;;;;3.92;0.98;;;;;;;25.18;27.50;92718.81;4793736;29;20051;-82
2022/06/10 13:58:45;;;;;;;3.17;1.20;;;;;;;24.97;26.62;92727.47;4789708;29;20035;-83
2022/06/10 14:01:23;;;;;;;1.60;1.00;;;;;;;25.01;26.11;92722.91;4796804;29;20325;-83
2022/06/10 14:03:54;;;;;;;4.07;1.20;;;;;;;25.10;27.60;92715.31;4797143;30;20067;-83
2022/06/10 14:06:32;;;;;;;3.67;1.30;;;;;;;25.01;26.53;92725.56;4796325;29;20069;-83
2022/06/10 14:09:01;;;;;;;4.13;0.88;;;;;;;25.02;25.07;92727.13;4791120;29;20039;-82
2022/06/10 14:11:34;;;;;;;2.22;1.20;;;;;;;25.30;25.05;92718.53;4790135;29;20032;-83
2022/06/10 14:14:21;;;;;;;1.05;0.60;;;;;;;25.47;27.17;92727.84;4796732;29;20371;-83
2022/06/10 14:17:02;;;;;;;2.53;1.00;;;;;;;25.46;26.17;92726.31;4795700;30;20039;-82
2022/06/10 14:19:29;;;;;;;1.75;0.95;;;;;;;24.99;26.37;92722.50;4797163;29;20046;-82
2022/06/10 14:21:54;;;;;;;2.95;1.00;;;;;;;24.83;27.08;92725.44;4796698;30;20044;-82
2022/06/10 14:24:32;;;;;;;1.65;0.82;;;;;;;24.90;27.30;92735.44;4798184;29;20039;-82
2022/06/10 14:27:04;;;;;;;1.33;0.73;;;;;;;24.98;27.04;92723.66;4794092;30;20493;-84
2022/06/10 14:29:43;;;;;;;1.63;0.90;;;;;;;25.11;28.06;92721.47;4796302;30;20072;-81
2022/06/10 14:32:32;;;;;;;1.27;0.90;;;;;;;24.91;28.16;92723.59;4794926;30;20039;-79
2022/06/10 14:35:22;;;;;;;1.33;0.80;;;;;;;24.83;26.65;92732.69;4794225;30;20076;-79
2022/06/10 14:38:13;;;;;;;1.63;0.80;;;;;;;25.11;28.20;92735.63;4792067;29;20043;-80
2022/06/10 14:41:19;;;;;;;2.72;1.08;;;;;;;25.34;27.51;92729.31;4802862;29;20042;-79
2022/06/10 14:44:17;;;;;;;2.25;0.88;;;;;;;25.27;27.71;92734.63;4773025;30;20054;-80
2022/06/10 14:47:20;;;;;;;2.72;0.95;;;;;;;25.27;27.72;92727.34;4796305;30;20114;-80
2022/06/10 14:49:58;;;;;;;2.97;0.90;;;;;;;25.42;27.53;92733.56;4795744;30;20043;-80
2022/06/10 14:52:47;;;;;;;1.92;1.02;;;;;;;25.23;27.57;92721.19;4794851;30;20023;-79
2022/06/10 14:55:20;;;;;;;2.63;1.00;;;;;;;25.16;27.41;92720.34;4786777;29;20482;-80
2022/06/10 14:57:56;;;;;;;1.35;0.80;;;;;;;25.00;27.16;92728.63;4797471;29;20046;-80
2022/06/10 15:00:25;;;;;;;1.70;0.90;;;;;;;24.99;27.44;92732.44;4792784;29;20402;-80
2022/06/10 15:02:50;;;;;;;1.33;0.90;;;;;;;25.26;28.18;92725.03;4779793;30;20074;-79
2022/06/10 15:08:03;;;;;;;6.13;1.00;;;;;;;25.08;26.11;92733.69;4779180;29;20605;-78
2022/06/10 15:10:29;;;;;;;1.05;0.70;;;;;;;25.04;26.78;92730.22;4776917;30;20143;-79
2022/06/10 15:12:54;;;;;;;1.27;0.80;;;;;;;25.00;27.92;92734.00;4798187;29;20054;-79
2022/06/10 15:15:20;;;;;;;2.42;1.00;;;;;;;25.02;26.75;92729.03;4799327;29;20494;-79
2022/06/10 15:17:46;;;;;;;1.80;0.80;;;;;;;25.02;27.46;92734.41;4792462;29;20043;-78
2022/06/10 15:20:14;;;;;;;2.08;0.88;;;;;;;25.25;26.73;92726.19;4791611;30;20050;-78
2022/06/10 15:22:53;;;;;;;2.78;1.20;;;;;;;25.19;26.92;92719.63;4781003;29;20032;-79
2022/06/10 15:25:28;;;;;;;1.92;1.10;;;;;;;24.97;27.10;92722.13;4794742;29;20047;-79
2022/06/10 15:27:57;;;;;;;1.98;1.10;;;;;;;25.03;27.19;92712.59;4796512;29;20045;-79
2022/06/10 15:30:27;;;;;;;1.60;0.90;;;;;;;25.10;27.54;92712.63;4798516;29;20040;-78
2022/06/10 15:32:54;;;;;;;2.63;1.00;;;;;;;25.06;27.31;92717.22;4792862;29;20138;-79
2022/06/10 15:41:14;;;;;;;3.13;1.15;;;;;;;25.14;26.40;92718.78;4795782;30;20039;-79
2022/06/10 15:43:41;;;;;;;3.60;1.00;;;;;;;25.05;26.65;92723.69;4792514;29;20047;-79
2022/06/10 15:46:24;;;;;;;1.52;1.00;;;;;;;24.89;27.03;92725.88;4790962;29;20040;-79
2022/06/10 15:48:51;;;;;;;4.25;1.08;;;;;;;24.99;27.82;92721.72;4791787;29;20035;-79
2022/06/10 15:51:33;;;;;;;1.38;0.80;;;;;;;24.93;27.63;92713.28;4802032;29;20031;-80